Time;durP1;ratioP1;P1;durP2;ratioP2;P2;SDS_P1;SDS_P2;PMS_P1;PMS_P2;Temp;Humidity;BMP_temperature;BMP_pressure;BME280_temperature;BME280_humidity;BME280_pressure;Samples;Min_cycle;Max_cycle;Signal;HPM_P1;HPM_P2
2021/04/22 00:00:18;;;;;;;12.93;9.50;;;;;;;7.61;100.00;95753.28;1022930;28;20600;-68
2021/04/22 00:00:49;;;;;;;11.30;9.63;;;;;;;7.69;100.00;95759.94;1027983;28;20030;-68
2021/04/22 00:01:19;;;;;;;11.27;8.80;;;;;;;7.71;100.00;95763.06;1034823;28;20264;-69
2021/04/22 00:01:50;;;;;;;13.63;9.85;;;;;;;7.72;100.00;95749.78;1031345;28;20030;-68
2021/04/22 00:02:20;;;;;;;12.02;8.70;;;;;;;7.79;100.00;95760.84;1031032;28;20026;-69
2021/04/22 00:02:51;;;;;;;11.90;8.82;;;;;;;7.81;100.00;95755.34;1028178;28;20034;-69
2021/04/22 00:03:21;;;;;;;12.10;8.77;;;;;;;7.85;100.00;95759.06;1023551;28;20027;-69
2021/04/22 00:03:52;;;;;;;15.38;10.30;;;;;;;7.90;100.00;95760.94;1023136;29;20047;-69
2021/04/22 00:04:22;;;;;;;13.18;9.73;;;;;;;7.93;100.00;95755.22;1023039;28;20030;-68
2021/04/22 00:04:53;;;;;;;13.55;9.75;;;;;;;7.91;100.00;95763.28;1019045;29;20007;-69
2021/04/22 00:05:29;;;;;;;13.48;9.43;;;;;;;7.86;100.00;95763.25;1022438;28;20501;-69
2021/04/22 00:05:59;;;;;;;12.57;10.43;;;;;;;7.81;100.00;95757.97;1023352;29;20019;-69
2021/04/22 00:06:30;;;;;;;12.20;9.20;;;;;;;7.80;100.00;95756.38;1026870;28;20353;-68
2021/04/22 00:07:00;;;;;;;13.25;8.93;;;;;;;7.93;100.00;95766.47;1022889;29;20031;-68
2021/04/22 00:07:30;;;;;;;12.73;9.15;;;;;;;7.98;100.00;95768.34;1031338;28;20428;-69
2021/04/22 00:08:01;;;;;;;11.93;9.13;;;;;;;7.95;100.00;95768.84;1030840;28;20034;-68
2021/04/22 00:08:32;;;;;;;12.43;8.45;;;;;;;7.93;100.00;95776.13;1031115;28;20109;-68
2021/04/22 00:09:05;;;;;;;12.20;8.93;;;;;;;7.90;100.00;95776.63;1035445;28;20025;-68
2021/04/22 00:09:35;;;;;;;13.82;9.93;;;;;;;7.77;100.00;95768.09;1028234;28;20547;-67
2021/04/22 00:10:09;;;;;;;12.23;9.70;;;;;;;7.63;100.00;95743.41;1022925;29;20273;-68
2021/04/22 00:10:45;;;;;;;10.90;8.98;;;;;;;7.80;100.00;95772.84;1015078;29;20713;-69
2021/04/22 00:11:15;;;;;;;11.07;8.98;;;;;;;7.80;100.00;95777.28;1023964;28;20360;-68
2021/04/22 00:11:46;;;;;;;12.25;9.15;;;;;;;7.78;100.00;95769.72;1028700;28;20756;-69
2021/04/22 00:12:17;;;;;;;14.68;10.02;;;;;;;7.82;100.00;95779.66;1027718;28;20315;-68
2021/04/22 00:12:47;;;;;;;11.68;9.48;;;;;;;7.79;100.00;95775.72;1029601;28;20518;-69
2021/04/22 00:13:25;;;;;;;12.82;9.57;;;;;;;7.71;100.00;95763.88;1022830;29;20909;-69
2021/04/22 00:13:56;;;;;;;12.57;9.82;;;;;;;7.75;100.00;95775.41;1021303;28;20032;-69
2021/04/22 00:14:26;;;;;;;12.82;9.70;;;;;;;7.72;100.00;95772.50;1028110;28;20270;-69
2021/04/22 00:14:57;;;;;;;12.13;9.57;;;;;;;7.70;100.00;95777.16;1027991;28;20130;-69
2021/04/22 00:15:27;;;;;;;12.48;9.75;;;;;;;7.70;100.00;95771.94;1030332;28;20038;-68
2021/04/22 00:15:59;;;;;;;13.35;9.73;;;;;;;7.69;100.00;95771.16;1034285;28;20041;-68
2021/04/22 00:16:30;;;;;;;12.90;10.10;;;;;;;7.78;100.00;95769.72;1029276;28;20081;-69
2021/04/22 00:17:01;;;;;;;12.60;9.82;;;;;;;7.77;100.00;95781.16;1035244;28;20342;-69
2021/04/22 00:17:31;;;;;;;15.00;9.90;;;;;;;7.81;100.00;95773.63;1026822;28;20047;-69
2021/04/22 00:18:03;;;;;;;12.90;10.18;;;;;;;7.87;100.00;95771.88;1031174;28;20030;-69
2021/04/22 00:18:34;;;;;;;13.52;10.00;;;;;;;7.82;100.00;95759.56;1031035;28;20238;-69
2021/04/22 00:19:04;;;;;;;12.32;10.50;;;;;;;7.78;100.00;95764.47;1023522;28;20263;-69
2021/04/22 00:19:35;;;;;;;13.77;10.70;;;;;;;7.80;100.00;95762.41;1026692;28;20039;-69
2021/04/22 00:20:06;;;;;;;15.60;11.77;;;;;;;7.78;100.00;95766.31;1019221;29;20031;-69
2021/04/22 00:20:37;;;;;;;14.82;10.60;;;;;;;7.77;100.00;95770.72;1011536;29;20436;-68
2021/04/22 00:21:07;;;;;;;15.38;10.88;;;;;;;7.77;100.00;95768.09;1019495;29;20280;-69
2021/04/22 00:21:38;;;;;;;11.82;9.68;;;;;;;7.76;100.00;95760.53;1022856;29;20030;-69
2021/04/22 00:22:08;;;;;;;12.88;9.95;;;;;;;7.83;100.00;95760.34;1025486;28;20033;-68
2021/04/22 00:22:39;;;;;;;14.50;10.43;;;;;;;7.85;100.00;95768.75;1027161;28;20042;-69
2021/04/22 00:23:11;;;;;;;16.02;11.00;;;;;;;7.89;100.00;95764.59;1023072;28;20035;-69
2021/04/22 00:23:41;;;;;;;17.48;11.52;;;;;;;7.90;100.00;95760.94;1028160;28;20428;-68
2021/04/22 00:24:11;;;;;;;15.70;12.07;;;;;;;7.88;100.00;95763.00;1035157;28;20268;-69
2021/04/22 00:24:42;;;;;;;17.42;11.55;;;;;;;7.88;100.00;95763.81;1034927;28;20799;-69
2021/04/22 00:25:13;;;;;;;15.00;11.60;;;;;;;7.83;100.00;95762.97;1030442;28;20066;-66
2021/04/22 00:25:43;;;;;;;16.00;12.85;;;;;;;7.84;100.00;95761.91;1026623;28;20022;-69
2021/04/22 00:26:14;;;;;;;17.80;11.88;;;;;;;7.86;100.00;95765.09;1026866;28;20019;-69
2021/04/22 00:26:44;;;;;;;17.90;12.05;;;;;;;7.89;100.00;95759.38;1027219;28;20738;-69
2021/04/22 00:27:15;;;;;;;15.90;11.15;;;;;;;7.91;100.00;95755.47;1028931;28;20441;-70
2021/04/22 00:27:45;;;;;;;15.55;11.00;;;;;;;7.83;100.00;95742.84;1022771;29;20071;-69
2021/04/22 00:28:16;;;;;;;14.98;10.98;;;;;;;7.90;100.00;95747.88;1023315;29;20421;-67
2021/04/22 00:28:46;;;;;;;14.88;11.50;;;;;;;7.89;100.00;95751.53;1029301;28;20121;-68
2021/04/22 00:29:17;;;;;;;16.42;12.00;;;;;;;7.79;100.00;95736.53;1027133;28;20026;-70
2021/04/22 00:29:47;;;;;;;15.60;11.73;;;;;;;7.83;100.00;95740.22;1022727;29;20023;-67
2021/04/22 00:30:18;;;;;;;16.10;11.43;;;;;;;7.88;100.00;95747.31;1022840;29;20426;-69
2021/04/22 00:30:48;;;;;;;14.70;11.10;;;;;;;7.91;100.00;95752.06;1023254;29;20820;-69
2021/04/22 00:31:19;;;;;;;16.40;12.10;;;;;;;7.91;100.00;95746.84;1022866;29;20266;-69
2021/04/22 00:31:49;;;;;;;17.90;12.43;;;;;;;7.90;100.00;95750.50;1030908;28;20045;-69
2021/04/22 00:32:20;;;;;;;17.25;11.70;;;;;;;7.88;100.00;95747.31;1023122;28;20042;-69
2021/04/22 00:32:50;;;;;;;13.98;11.25;;;;;;;7.87;100.00;95750.97;1027018;28;20052;-69
2021/04/22 00:33:22;;;;;;;16.50;11.85;;;;;;;7.82;100.00;95737.88;1031107;28;20027;-69
2021/04/22 00:33:52;;;;;;;17.20;12.13;;;;;;;7.87;100.00;95751.75;1027051;28;20037;-69
2021/04/22 00:34:23;;;;;;;15.07;11.65;;;;;;;7.86;100.00;95738.97;1034949;28;20268;-70
2021/04/22 00:34:53;;;;;;;16.05;11.40;;;;;;;7.88;100.00;95744.72;1027098;28;20381;-69
2021/04/22 00:35:24;;;;;;;14.80;11.65;;;;;;;7.87;100.00;95741.31;1026284;28;20400;-69
2021/04/22 00:35:54;;;;;;;16.70;11.68;;;;;;;7.86;100.00;95738.97;1022508;28;20421;-68
2021/04/22 00:36:25;;;;;;;16.60;10.90;;;;;;;7.85;100.00;95740.00;1027206;28;20451;-69
2021/04/22 00:36:55;;;;;;;16.67;11.32;;;;;;;7.85;100.00;95742.63;1030868;28;20546;-70
2021/04/22 00:37:25;;;;;;;14.98;10.85;;;;;;;7.80;100.00;95736.28;1028220;28;20496;-69
2021/04/22 00:37:56;;;;;;;15.68;11.43;;;;;;;7.76;100.00;95729.19;1026796;28;20026;-70
2021/04/22 00:38:26;;;;;;;15.98;12.27;;;;;;;7.80;100.00;95744.13;1022869;29;20042;-69
2021/04/22 00:38:57;;;;;;;16.05;11.55;;;;;;;7.78;100.00;95738.38;1022914;28;20402;-69
2021/04/22 00:39:27;;;;;;;15.07;12.18;;;;;;;7.77;100.00;95735.97;1022975;28;20043;-69
2021/04/22 00:39:58;;;;;;;14.27;11.00;;;;;;;7.74;100.00;95731.25;1027024;28;20031;-69
2021/04/22 00:40:28;;;;;;;20.25;11.65;;;;;;;7.70;100.00;95730.94;1031343;28;20038;-68
2021/04/22 00:40:59;;;;;;;18.15;12.35;;;;;;;7.72;100.00;95734.13;1021685;28;20054;-69
2021/04/22 00:41:29;;;;;;;16.60;11.73;;;;;;;7.63;100.00;95721.72;1027079;28;20030;-70
2021/04/22 00:41:59;;;;;;;17.10;11.55;;;;;;;7.75;100.00;95740.69;1026963;28;20071;-69
2021/04/22 00:42:30;;;;;;;15.13;11.77;;;;;;;7.72;100.00;95733.31;1022510;28;20027;-69
2021/04/22 00:43:02;;;;;;;17.95;12.32;;;;;;;7.72;100.00;95733.31;1023124;29;20034;-68
2021/04/22 00:43:32;;;;;;;16.52;12.18;;;;;;;7.71;100.00;95737.75;1019130;29;20024;-69
2021/04/22 00:44:05;;;;;;;16.60;12.50;;;;;;;7.73;100.00;95738.28;1023507;28;20358;-69
2021/04/22 00:44:35;;;;;;;13.15;10.25;;;;;;;7.72;100.00;95739.34;1027450;28;20030;-68
2021/04/22 00:45:06;;;;;;;15.45;11.27;;;;;;;7.73;100.00;95735.69;1027091;28;20279;-69
2021/04/22 00:45:37;;;;;;;14.32;10.68;;;;;;;7.75;100.00;95736.25;1031034;28;20424;-67
2021/04/22 00:46:08;;;;;;;14.88;11.30;;;;;;;7.75;100.00;95738.06;1030137;28;20276;-69
2021/04/22 00:46:39;;;;;;;12.88;10.27;;;;;;;7.69;100.00;95724.16;1026969;28;20901;-68
2021/04/22 00:47:09;;;;;;;13.25;10.00;;;;;;;7.79;100.00;95726.88;1031268;28;20032;-69
2021/04/22 00:47:40;;;;;;;15.27;10.95;;;;;;;7.75;100.00;95732.84;1022688;28;20023;-69
2021/04/22 00:48:11;;;;;;;13.25;10.63;;;;;;;7.69;100.00;95723.38;1018910;29;20019;-69
2021/04/22 00:48:41;;;;;;;15.15;10.75;;;;;;;7.70;100.00;95728.34;1027066;28;20055;-68
2021/04/22 00:49:11;;;;;;;14.98;10.75;;;;;;;7.74;100.00;95731.25;1022680;28;20031;-68
2021/04/22 00:49:42;;;;;;;15.02;10.10;;;;;;;7.77;100.00;95734.16;1031371;28;20817;-68
2021/04/22 00:50:18;;;;;;;16.35;10.30;;;;;;;7.79;100.00;95739.16;1022792;29;20047;-69
2021/04/22 00:50:50;;;;;;;16.58;10.23;;;;;;;7.71;100.00;95724.72;1022464;29;20027;-69
2021/04/22 00:51:20;;;;;;;15.35;10.43;;;;;;;7.79;100.00;95734.72;1022907;29;20259;-68
2021/04/22 00:51:51;;;;;;;15.07;10.73;;;;;;;7.79;100.00;95742.53;1022806;29;20637;-68
2021/04/22 00:52:22;;;;;;;13.75;10.77;;;;;;;7.78;100.00;95732.34;1015320;29;20028;-68
2021/04/22 00:52:53;;;;;;;14.35;10.65;;;;;;;7.74;100.00;95734.63;1022881;28;20263;-69
2021/04/22 00:53:24;;;;;;;14.50;10.18;;;;;;;7.74;100.00;95736.47;1027189;28;20102;-69
2021/04/22 00:53:54;;;;;;;14.05;10.98;;;;;;;7.68;100.00;95730.41;1027201;28;20096;-69
2021/04/22 00:54:25;;;;;;;13.45;10.23;;;;;;;7.71;100.00;95737.75;1030437;28;20033;-69
2021/04/22 00:54:55;;;;;;;13.63;11.07;;;;;;;7.75;100.00;95732.84;1022502;29;20027;-68
2021/04/22 00:55:26;;;;;;;15.80;10.68;;;;;;;7.72;100.00;95734.13;1022427;29;20011;-69
2021/04/22 00:55:56;;;;;;;13.82;10.00;;;;;;;7.69;100.00;95734.59;1026684;28;20515;-69
2021/04/22 00:56:27;;;;;;;11.75;9.65;;;;;;;7.70;100.00;95733.56;1022705;28;20477;-69
2021/04/22 00:56:57;;;;;;;14.52;11.32;;;;;;;7.68;100.00;95735.63;1026963;28;20015;-68
2021/04/22 00:57:28;;;;;;;12.88;10.48;;;;;;;7.69;100.00;95734.59;1022939;28;20023;-69
2021/04/22 00:57:58;;;;;;;14.07;11.05;;;;;;;7.66;100.00;95736.91;1027124;28;20019;-69
2021/04/22 00:58:29;;;;;;;14.07;10.57;;;;;;;7.63;100.00;95735.56;1030805;28;20117;-68
2021/04/22 00:58:59;;;;;;;13.05;10.32;;;;;;;7.61;100.00;95737.63;1030571;28;20093;-68
2021/04/22 00:59:30;;;;;;;14.57;11.40;;;;;;;7.60;100.00;95735.25;1034144;28;20064;-69
2021/04/22 01:00:00;;;;;;;15.05;10.93;;;;;;;7.59;100.00;95738.91;1026752;28;20658;-69
2021/04/22 01:00:33;;;;;;;14.23;10.40;;;;;;;7.56;100.00;95735.75;1030694;28;20026;-68
2021/04/22 01:01:03;;;;;;;13.75;10.43;;;;;;;7.47;100.00;95720.75;1032727;28;20034;-69
2021/04/22 01:01:34;;;;;;;13.02;10.32;;;;;;;7.54;100.00;95737.00;1022497;28;20298;-69
2021/04/22 01:02:07;;;;;;;13.55;9.60;;;;;;;7.61;100.00;95736.84;1030859;28;20019;-68
2021/04/22 01:02:37;;;;;;;12.43;10.13;;;;;;;7.62;100.00;95736.59;1026794;28;20027;-69
2021/04/22 01:03:08;;;;;;;13.75;9.93;;;;;;;7.50;100.00;95725.47;1023189;28;20357;-69
2021/04/22 01:03:39;;;;;;;15.43;10.32;;;;;;;7.55;100.00;95738.63;1026014;28;20019;-67
2021/04/22 01:04:09;;;;;;;13.38;10.25;;;;;;;7.54;100.00;95737.00;1023290;28;20283;-68
2021/04/22 01:04:40;;;;;;;14.60;9.95;;;;;;;7.53;100.00;95738.84;1034987;28;20021;-70
2021/04/22 01:05:13;;;;;;;13.05;10.63;;;;;;;7.49;100.00;95723.91;1038724;28;20381;-68
2021/04/22 01:05:48;;;;;;;14.75;10.25;;;;;;;7.51;100.00;95737.50;1038605;28;20069;-69
2021/04/22 01:06:19;;;;;;;13.18;9.80;;;;;;;7.48;100.00;95736.19;1037964;28;20769;-69
2021/04/22 01:06:50;;;;;;;14.05;10.20;;;;;;;7.44;100.00;95732.47;1034823;28;20260;-69
2021/04/22 01:07:20;;;;;;;15.45;10.75;;;;;;;7.36;100.00;95725.06;1026530;28;20254;-68
2021/04/22 01:07:51;;;;;;;15.13;10.23;;;;;;;7.41;100.00;95737.38;1019173;29;20039;-68
2021/04/22 01:08:21;;;;;;;13.52;10.38;;;;;;;7.31;100.00;95723.19;1026340;28;20081;-68
2021/04/22 01:08:52;;;;;;;14.38;10.27;;;;;;;7.27;100.00;95722.06;1026988;28;20048;-68
2021/04/22 01:09:22;;;;;;;13.63;10.85;;;;;;;7.33;100.00;95736.75;1029021;28;20027;-68
2021/04/22 01:09:53;;;;;;;13.13;10.23;;;;;;;7.33;100.00;95735.97;1022265;28;20095;-69
2021/04/22 01:10:23;;;;;;;12.48;8.30;;;;;;;7.32;100.00;95732.59;1021528;28;20023;-69
2021/04/22 01:10:54;;;;;;;14.55;9.90;;;;;;;7.26;100.00;95719.72;1022067;28;20058;-69
2021/04/22 01:11:29;;;;;;;11.18;9.00;;;;;;;7.31;100.00;95732.84;1029741;28;20026;-68
2021/04/22 01:12:02;;;;;;;12.43;9.00;;;;;;;7.34;100.00;95734.94;1019199;29;20094;-69
2021/04/22 01:12:32;;;;;;;11.52;8.77;;;;;;;7.36;100.00;95739.94;1026660;28;20707;-69
2021/04/22 01:13:03;;;;;;;12.98;9.35;;;;;;;7.32;100.00;95726.59;1024074;28;20266;-69
2021/04/22 01:13:33;;;;;;;13.55;9.45;;;;;;;7.35;100.00;95733.94;1018691;29;20130;-68
2021/04/22 01:14:04;;;;;;;11.00;8.60;;;;;;;7.37;100.00;95736.28;1028484;28;20073;-69
2021/04/22 01:14:34;;;;;;;10.10;8.55;;;;;;;7.31;100.00;95725.78;1023350;28;20027;-69
2021/04/22 01:15:09;;;;;;;12.55;8.98;;;;;;;7.39;100.00;95731.63;1031794;28;20026;-68
2021/04/22 01:15:39;;;;;;;11.02;8.63;;;;;;;7.42;100.00;95738.97;1032064;28;20018;-69
2021/04/22 01:16:10;;;;;;;12.25;9.35;;;;;;;7.45;100.00;95733.28;1031879;28;20659;-69
2021/04/22 01:16:40;;;;;;;16.30;9.32;;;;;;;7.45;100.00;95736.66;1025587;28;20019;-67
2021/04/22 01:17:11;;;;;;;10.98;8.00;;;;;;;7.46;100.00;95737.44;1022849;28;20535;-68
2021/04/22 01:17:41;;;;;;;12.07;9.50;;;;;;;7.44;100.00;95740.28;1030693;28;20014;-68
2021/04/22 01:18:12;;;;;;;12.85;9.30;;;;;;;7.32;100.00;95724.75;1030083;28;20025;-69
2021/04/22 01:18:42;;;;;;;12.70;9.95;;;;;;;7.39;100.00;95739.44;1035013;28;20107;-68
2021/04/22 01:19:13;;;;;;;13.07;8.93;;;;;;;7.40;100.00;95735.81;1037361;28;20054;-68
2021/04/22 01:19:44;;;;;;;13.30;9.27;;;;;;;7.39;100.00;95735.03;1026966;28;20078;-69
2021/04/22 01:20:16;;;;;;;11.85;9.15;;;;;;;7.41;100.00;95740.00;1030293;28;20053;-69
2021/04/22 01:20:48;;;;;;;12.18;9.52;;;;;;;7.33;100.00;95728.94;1034793;28;20038;-69
2021/04/22 01:21:25;;;;;;;11.45;9.32;;;;;;;7.30;100.00;95728.63;1032120;28;20328;-69
2021/04/22 01:21:56;;;;;;;14.00;9.25;;;;;;;7.22;100.00;95722.03;1026935;28;20289;-70
2021/04/22 01:22:26;;;;;;;13.38;9.98;;;;;;;7.25;100.00;95736.41;1018661;29;20308;-69
2021/04/22 01:22:58;;;;;;;12.15;10.27;;;;;;;7.21;100.00;95738.72;1023181;29;20580;-69
2021/04/22 01:23:29;;;;;;;12.68;9.25;;;;;;;7.18;100.00;95733.19;1027120;28;20453;-69
2021/04/22 01:23:59;;;;;;;12.85;10.27;;;;;;;7.15;100.00;95733.66;1028050;28;20269;-68
2021/04/22 01:24:30;;;;;;;12.45;10.40;;;;;;;7.11;100.00;95733.34;1022821;29;20031;-68
2021/04/22 01:25:00;;;;;;;13.73;10.38;;;;;;;7.07;100.00;95735.63;1018881;29;20051;-69
2021/04/22 01:25:38;;;;;;;12.52;10.20;;;;;;;7.03;100.00;95731.16;1023425;28;20023;-69
2021/04/22 01:26:09;;;;;;;13.95;11.48;;;;;;;7.02;100.00;95740.78;1022627;28;20477;-69
2021/04/22 01:26:40;;;;;;;14.25;11.18;;;;;;;6.98;100.00;95737.09;1026990;28;20290;-69
2021/04/22 01:27:11;;;;;;;16.33;11.43;;;;;;;6.93;100.00;95736.22;1034575;28;20400;-69
2021/04/22 01:27:41;;;;;;;14.65;11.32;;;;;;;6.88;100.00;95739.56;1034979;28;20428;-69
2021/04/22 01:28:13;;;;;;;14.52;11.25;;;;;;;6.84;100.00;95739.25;1028406;28;20308;-68
2021/04/22 01:28:43;;;;;;;14.80;11.25;;;;;;;6.78;100.00;95734.19;1026779;28;20031;-69
2021/04/22 01:29:14;;;;;;;15.38;11.18;;;;;;;6.75;100.00;95738.06;1022734;29;20266;-69
2021/04/22 01:29:44;;;;;;;13.32;10.82;;;;;;;6.65;100.00;95722.25;1020072;28;20020;-68
2021/04/22 01:30:17;;;;;;;15.88;11.25;;;;;;;6.69;100.00;95740.81;1022570;28;20020;-69
2021/04/22 01:30:49;;;;;;;15.82;11.20;;;;;;;6.64;100.00;95733.72;1023029;29;20035;-68
2021/04/22 01:31:22;;;;;;;14.02;11.05;;;;;;;6.53;100.00;95727.53;1026679;28;20863;-69
2021/04/22 01:31:53;;;;;;;16.55;11.95;;;;;;;6.58;100.00;95739.88;1027616;28;20277;-69
2021/04/22 01:32:23;;;;;;;15.90;11.32;;;;;;;6.56;100.00;95741.91;1031770;28;20810;-69
2021/04/22 01:32:54;;;;;;;15.57;10.98;;;;;;;6.52;100.00;95748.63;1034290;28;20030;-69
2021/04/22 01:33:26;;;;;;;14.75;11.63;;;;;;;6.43;100.00;95735.19;1029389;28;20777;-69
2021/04/22 01:34:03;;;;;;;16.42;12.35;;;;;;;6.42;100.00;95740.66;1022742;29;20031;-69
2021/04/22 01:34:34;;;;;;;16.38;12.20;;;;;;;6.38;100.00;95741.13;1022549;28;20293;-68
2021/04/22 01:35:10;;;;;;;15.23;11.05;;;;;;;6.33;100.00;95737.63;1024775;28;20286;-68
2021/04/22 01:35:42;;;;;;;15.85;11.00;;;;;;;6.29;100.00;95737.31;1030730;28;20035;-68
2021/04/22 01:36:12;;;;;;;17.83;12.30;;;;;;;6.32;100.00;95754.31;1023032;29;20823;-69
2021/04/22 01:36:43;;;;;;;16.30;12.13;;;;;;;6.28;100.00;95748.78;1019338;29;20343;-70
2021/04/22 01:37:14;;;;;;;18.23;12.50;;;;;;;6.25;100.00;95751.84;1026704;28;20027;-69
2021/04/22 01:37:44;;;;;;;17.10;11.77;;;;;;;6.22;100.00;95748.91;1023072;28;20271;-68
2021/04/22 01:38:15;;;;;;;17.90;12.55;;;;;;;6.18;100.00;95751.19;1015382;29;20140;-69
2021/04/22 01:38:46;;;;;;;18.15;13.02;;;;;;;6.14;100.00;95753.50;1014852;29;20051;-69
2021/04/22 01:39:16;;;;;;;16.80;12.40;;;;;;;6.12;100.00;95750.31;1019227;29;20490;-68
2021/04/22 01:39:47;;;;;;;16.48;12.07;;;;;;;6.07;100.00;95747.63;1027120;28;20035;-70
2021/04/22 01:40:17;;;;;;;23.77;12.77;;;;;;;6.07;100.00;95749.44;1025828;28;20026;-69
2021/04/22 01:40:48;;;;;;;18.85;12.48;;;;;;;5.98;100.00;95743.03;1022600;29;20039;-68
2021/04/22 01:41:18;;;;;;;16.15;11.98;;;;;;;6.01;100.00;95745.16;1014859;29;20137;-69
2021/04/22 01:41:49;;;;;;;18.48;13.40;;;;;;;5.89;100.00;95739.97;1013016;29;20055;-69
2021/04/22 01:42:19;;;;;;;16.92;13.00;;;;;;;5.97;100.00;95754.44;1018808;29;20410;-69
2021/04/22 01:42:50;;;;;;;17.00;12.32;;;;;;;5.95;100.00;95756.50;1018865;28;20090;-69
2021/04/22 01:43:20;;;;;;;21.00;13.35;;;;;;;5.90;100.00;95750.16;1028086;28;20448;-69
2021/04/22 01:43:51;;;;;;;18.88;13.85;;;;;;;5.87;100.00;95745.41;1024944;28;20034;-66
2021/04/22 01:44:22;;;;;;;18.27;12.93;;;;;;;5.85;100.00;95752.66;1024542;28;20114;-69
2021/04/22 01:44:52;;;;;;;16.70;13.13;;;;;;;5.82;100.00;95754.94;1024222;28;20270;-69
2021/04/22 01:45:23;;;;;;;18.95;12.98;;;;;;;5.81;100.00;95761.97;1025951;28;20026;-69
2021/04/22 01:45:53;;;;;;;19.15;14.02;;;;;;;5.77;100.00;95754.81;1031020;28;20030;-68
2021/04/22 01:46:24;;;;;;;17.30;13.27;;;;;;;5.69;100.00;95750.78;1030791;28;20072;-69
2021/04/22 01:46:55;;;;;;;17.33;13.45;;;;;;;5.73;100.00;95754.50;1026317;28;20058;-68
2021/04/22 01:47:25;;;;;;;21.80;14.50;;;;;;;5.73;100.00;95757.09;1031120;28;20015;-69
2021/04/22 01:47:56;;;;;;;18.92;13.88;;;;;;;5.68;100.00;95763.00;1022656;29;20024;-69
2021/04/22 01:48:27;;;;;;;19.02;13.20;;;;;;;5.63;100.00;95749.09;1022656;28;20023;-69
2021/04/22 01:48:57;;;;;;;18.10;13.40;;;;;;;5.70;100.00;95765.41;1022536;29;20028;-69
2021/04/22 01:49:28;;;;;;;20.60;14.57;;;;;;;5.68;100.00;95757.03;1022664;28;20279;-68
2021/04/22 01:49:58;;;;;;;21.58;15.38;;;;;;;5.69;100.00;95761.19;1019322;29;20024;-68
2021/04/22 01:50:29;;;;;;;20.38;15.10;;;;;;;5.65;100.00;95760.09;1022400;29;20027;-68
2021/04/22 01:51:02;;;;;;;18.30;13.55;;;;;;;5.63;100.00;95767.31;1018696;29;20118;-68
2021/04/22 01:51:32;;;;;;;20.40;14.65;;;;;;;5.63;100.00;95764.72;1018920;29;20275;-69
2021/04/22 01:52:03;;;;;;;21.00;14.98;;;;;;;5.62;100.00;95763.16;1020908;28;20267;-68
2021/04/22 01:52:33;;;;;;;21.80;14.93;;;;;;;5.60;100.00;95759.97;1026859;28;20031;-69
2021/04/22 01:53:04;;;;;;;20.40;14.60;;;;;;;5.49;100.00;95748.56;1026953;28;20027;-69
2021/04/22 01:53:35;;;;;;;20.48;14.38;;;;;;;5.58;100.00;95762.03;1030457;28;20038;-68
2021/04/22 01:54:06;;;;;;;20.73;13.93;;;;;;;5.60;100.00;95773.81;1030805;28;20277;-68
2021/04/22 01:54:36;;;;;;;21.33;14.90;;;;;;;5.60;100.00;95765.16;1030680;28;20089;-69
2021/04/22 01:55:09;;;;;;;19.05;14.63;;;;;;;5.58;100.00;95768.03;1030114;28;20766;-68
2021/04/22 01:55:44;;;;;;;22.92;15.02;;;;;;;5.56;100.00;95761.47;1030813;28;20744;-68
2021/04/22 01:56:15;;;;;;;19.67;14.73;;;;;;;5.62;100.00;95765.75;1030567;28;20258;-68
2021/04/22 01:56:45;;;;;;;21.08;15.23;;;;;;;5.63;100.00;95767.31;1030983;28;20793;-69
2021/04/22 01:57:16;;;;;;;19.90;15.48;;;;;;;5.63;100.00;95767.31;1025887;28;20274;-68
2021/04/22 01:57:46;;;;;;;18.58;14.75;;;;;;;5.66;100.00;95766.88;1027268;28;20026;-68
2021/04/22 01:58:22;;;;;;;20.38;15.35;;;;;;;5.66;100.00;95774.66;1030948;28;20030;-68
2021/04/22 01:58:52;;;;;;;20.55;14.90;;;;;;;5.68;100.00;95770.03;1026910;28;20031;-68
2021/04/22 01:59:23;;;;;;;21.25;15.82;;;;;;;5.71;100.00;95777.38;1030755;28;20297;-69
2021/04/22 01:59:53;;;;;;;21.90;15.35;;;;;;;5.78;100.00;95767.63;1027334;28;20063;-69
2021/04/22 02:00:38;;;;;;;21.98;15.60;;;;;;;5.76;100.00;95755.84;1022298;28;20067;-68
2021/04/22 02:01:09;;;;;;;18.25;13.32;;;;;;;6.04;100.00;95773.38;1015014;29;20024;-69
2021/04/22 02:01:40;;;;;;;20.45;14.75;;;;;;;6.01;100.00;95766.00;1014678;29;20261;-68
2021/04/22 02:02:10;;;;;;;20.55;14.27;;;;;;;5.99;100.00;95763.63;1018651;28;20024;-70
2021/04/22 02:02:41;;;;;;;19.35;15.10;;;;;;;5.94;100.00;95757.53;1018795;28;20441;-69
2021/04/22 02:03:12;;;;;;;24.90;15.13;;;;;;;5.99;100.00;95768.03;1018303;29;20110;-69
2021/04/22 02:03:42;;;;;;;22.33;14.80;;;;;;;5.99;100.00;95770.66;1018603;29;20035;-68
2021/04/22 02:04:13;;;;;;;20.05;15.10;;;;;;;5.93;100.00;95758.56;1022381;28;20038;-69
2021/04/22 02:04:44;;;;;;;20.50;15.60;;;;;;;5.95;100.00;95764.31;1027053;28;20027;-69
2021/04/22 02:05:15;;;;;;;18.63;14.25;;;;;;;6.04;100.00;95770.75;1030132;28;20030;-68
2021/04/22 02:05:45;;;;;;;19.23;14.40;;;;;;;6.05;100.00;95770.50;1029573;28;20277;-69
2021/04/22 02:06:16;;;;;;;17.83;13.55;;;;;;;6.09;100.00;95773.44;1022814;29;20027;-69
2021/04/22 02:06:47;;;;;;;21.30;14.68;;;;;;;6.06;100.00;95769.47;1022791;28;20275;-68
2021/04/22 02:07:17;;;;;;;19.92;14.35;;;;;;;6.24;100.00;95784.16;1028896;28;20093;-69
2021/04/22 02:07:48;;;;;;;17.27;13.90;;;;;;;6.30;100.00;95775.38;1026145;28;20038;-69
2021/04/22 02:08:19;;;;;;;20.50;13.35;;;;;;;6.36;100.00;95774.44;1026657;28;20019;-69
2021/04/22 02:08:49;;;;;;;19.60;14.57;;;;;;;6.38;100.00;95780.22;1018344;29;20423;-67
2021/04/22 02:09:20;;;;;;;19.35;14.27;;;;;;;6.35;100.00;95766.88;1015305;29;20080;-68
2021/04/22 02:09:50;;;;;;;18.23;13.38;;;;;;;6.48;100.00;95781.41;1026408;28;20030;-68
2021/04/22 02:10:21;;;;;;;18.10;13.95;;;;;;;6.54;100.00;95780.50;1023112;28;20030;-69
2021/04/22 02:10:51;;;;;;;20.80;13.07;;;;;;;6.57;100.00;95780.00;1030033;28;20031;-68
2021/04/22 02:11:22;;;;;;;18.17;14.23;;;;;;;6.58;100.00;95781.59;1026306;28;20657;-69
2021/04/22 02:11:52;;;;;;;20.75;14.38;;;;;;;6.62;100.00;95782.69;1022850;28;20532;-69
2021/04/22 02:12:23;;;;;;;18.70;14.10;;;;;;;6.60;100.00;95779.53;1030307;28;20727;-68
2021/04/22 02:12:53;;;;;;;19.25;14.55;;;;;;;6.54;100.00;95770.84;1030377;28;20173;-68
2021/04/22 02:13:24;;;;;;;18.05;14.35;;;;;;;6.56;100.00;95775.81;1030752;28;20030;-68
2021/04/22 02:13:55;;;;;;;18.15;13.63;;;;;;;6.62;100.00;95777.47;1030206;28;20411;-69
2021/04/22 02:14:25;;;;;;;21.60;14.65;;;;;;;6.57;100.00;95769.56;1026142;28;20354;-69
2021/04/22 02:14:56;;;;;;;18.67;14.27;;;;;;;6.62;100.00;95780.09;1026325;28;20034;-69
2021/04/22 02:15:27;;;;;;;19.58;14.63;;;;;;;6.58;100.00;95776.38;1025801;28;20031;-69
2021/04/22 02:15:58;;;;;;;23.23;15.45;;;;;;;6.60;100.00;95775.09;1034606;28;20041;-69
2021/04/22 02:16:28;;;;;;;20.70;14.15;;;;;;;6.57;100.00;95780.81;1026336;28;20266;-69
2021/04/22 02:16:59;;;;;;;20.60;15.23;;;;;;;6.55;100.00;95782.06;1022982;28;20034;-69
2021/04/22 02:17:31;;;;;;;18.98;15.40;;;;;;;6.48;100.00;95777.00;1018841;29;20095;-68
2021/04/22 02:18:01;;;;;;;22.98;15.80;;;;;;;6.52;100.00;95783.31;1022400;28;20027;-68
2021/04/22 02:18:32;;;;;;;19.10;14.77;;;;;;;6.51;100.00;95780.97;1026757;28;20310;-68
2021/04/22 02:19:02;;;;;;;21.55;14.75;;;;;;;6.50;100.00;95784.56;1027090;28;20452;-68
2021/04/22 02:19:33;;;;;;;20.42;14.82;;;;;;;6.41;100.00;95773.75;1030497;28;20038;-69
2021/04/22 02:20:13;;;;;;;22.33;16.23;;;;;;;6.44;100.00;95781.09;1034948;28;20022;-68
2021/04/22 02:20:44;;;;;;;20.85;14.95;;;;;;;6.39;100.00;95767.97;1034675;28;20033;-67
2021/04/22 02:21:14;;;;;;;21.15;16.25;;;;;;;6.42;100.00;95783.13;1026472;28;20026;-69
2021/04/22 02:21:45;;;;;;;22.50;16.35;;;;;;;6.41;100.00;95780.78;1027262;28;20061;-69
2021/04/22 02:22:15;;;;;;;22.73;17.67;;;;;;;6.33;100.00;95769.69;1031296;28;20022;-69
2021/04/22 02:22:46;;;;;;;22.60;16.63;;;;;;;6.41;100.00;95780.78;1027286;28;20070;-69
2021/04/22 02:23:18;;;;;;;20.98;16.08;;;;;;;6.39;100.00;95783.59;1023343;28;20019;-69